Vliegveldwaarnemingen Nederland - (AUTO) METAR

Luchtvaartmeteorologische informatie voor operationeel gebruik en vluchtvoorbereiding is beschikbaar op www.luchtvaartmeteo.nl.

ZCZC
SA261455 EHFS     VLISSINGEN AWS   NLD   8 m.
METAR EHFS 261455Z AUTO 21024KT 9999 FEW023/// SCT026/// 12/08 Q0999=

ZCZC
SA261455 EHSG     BSA   NLD   43 m.
METAR EHSG 261455Z AUTO 21031KT //// // FEW015/// 13/09 Q0997 RE//=

ZCZC
SA261525 EHKD     DE KOOY/DE KOOY   NLD   1 m.
METAR EHKD 261525Z AUTO 21020KT 180V240 9999 FEW016 BKN020 BKN025
12/08 Q0996
WHT TEMPO 4500 SHRA SCT014 SCT018CB BKN020=

ZCZC
SA261525 EHFD     F3-FB-1   NLD   50 m.
METAR EHFD 261525Z AUTO /////KT 9999 FEW022/// SCT027/// 12/06 Q0993=

ZCZC
SA261525 EHAM     AMSTERDAM/SCHIPHOL   NLD   -3 m.
METAR EHAM 261525Z 20016KT 170V230 9999 SCT032 12/07 Q0998 NOSIG=

ZCZC
SA261525 EHVL     VLIELAND   NLD   10 m.
METAR EHVL 261525Z AUTO 20016KT 9999 FEW015CB SCT026 BKN030 11/09
Q0996 BLU=

ZCZC
SA261525 EHJR     K13-A   NLD   37 m.
METAR EHJR 261525Z AUTO 00000KT //// // ///////// 12/07 Q0995 RE//
W13/H22=

ZCZC
SA261525 EHLE     LELYSTAD/LELYSTAD   NLD   -3 m.
METAR EHLE 261525Z AUTO 19010KT 160V220 9999 FEW030 BKN038 11/07
Q0999 NOSIG=

ZCZC
SA261525 EHLW     LEEUWARDEN/LEEUWARDEN   NLD   1 m.
METAR EHLW 261525Z AUTO 19013KT 140V220 9999 FEW031 11/07 Q0998 BLU=

ZCZC
SA261525 EHDL     ARNHEM/DEELEN   NLD   48 m.
METAR EHDL 261525Z AUTO 17008KT 120V220 9999 DZ FEW026 BKN033 BKN038
11/08 Q1000 BLU=

ZCZC
SA261525 EHGG     GRONINGEN/EELDE   NLD   5 m.
METAR EHGG 261525Z AUTO 18010KT 9999 NSC 11/06 Q0999 NOSIG=

ZCZC
SA261525 EHSC     LICHTEILAND GOEREE   NLD   22 m.
METAR EHSC 261525Z AUTO 22030KT 9999 ///////// 12/09 Q0998 W13/H17=

ZCZC
SA261525 EHSA     EURO PLATFORM   NLD   19 m.
METAR EHSA 261525Z AUTO 20032KT 9999 ///////// 13/09 Q0997 W12/H23=

ZCZC
SA261525 EHWO     WOENSDRECHT/WOENSDRECHT   NLD   19 m.
METAR EHWO 261525Z AUTO 22010G20KT 180V260 9999 BKN030 OVC034 12/07
Q1000 BLU=

ZCZC
SA261525 EHRD     ROTTERDAM/THE HAGUE AIRPORT   NLD   -5 m.
METAR EHRD 261525Z AUTO 21017KT 9999 FEW026 SCT030 12/07 Q0998 NOSIG=

ZCZC
SA261525 EHGR     GILZE-RIJEN/GILZE-RIJEN   NLD   14 m.
METAR EHGR 261525Z AUTO 20008KT 140V240 9999 FEW032 SCT041 OVC047
12/07 Q1000
BLU NOSIG=

ZCZC
SA261525 EHEH     EINDHOVEN/EINDHOVEN   NLD   22 m.
METAR EHEH 261525Z AUTO 19006KT 170V230 9999 SCT036 SCT041 BKN048
12/07 Q1001
BLU NOSIG=

ZCZC
SA261525 EHVK     VOLKEL/VOLKEL   NLD   21 m.
METAR EHVK 261525Z AUTO 19011KT 150V230 9999 SCT030 OVC050 11/07
Q1000 BLU=

ZCZC
SA261525 EHBK     MAASTRICHT/MAASTRICHT-AACHEN   NLD   114 m.
METAR EHBK 261525Z AUTO 20012KT 170V230 9999 SCT035 BKN040 12/05
Q1002 NOSIG=

ZCZC
SA261525 EHFZ     F16-A   NLD   43 m.
METAR EHFZ 261525Z NIL=

ZCZC
SA261525 EHKV     K14-FA-1C   NLD   41 m.
METAR EHKV 261525Z AUTO 24023KT 9999 -DZ FEW019 SCT032 BKN042 12/08
Q0995=

ZCZC
SA261525 EHMG     L9-FF-1   NLD   44 m.
METAR EHMG 261525Z AUTO 21022KT 9999 FEW017 SCT023 BKN027 12/07
Q0996=

ZCZC
SA261525 EHMA     AWG-1   NLD   40 m.
METAR EHMA 261525Z AUTO 20024KT 9999 FEW020 11/07 Q0997=

ZCZC
SA261525 EHDV     D15-FA-1   NLD   42 m.
METAR EHDV 261525Z AUTO 23021G32KT 200V290 9999 FEW012/// SCT014///
BKN024/// 11/08 Q0992=

ZCZC
SA261525 EHAK     A12-CPP   NLD   48 m.
METAR EHAK 261525Z AUTO 21022KT 170V330 9999 SCT018/// SCT026///
11/07 Q0991=

ZCZC
SA261525 EHQE     HOORN-A   NLD   50 m.
METAR EHQE 261525Z AUTO 17031KT //// // ////// 13/09 Q0995 RE//=

ZCZC
SA261525 EHJA     J6-A   NLD   45 m.
METAR EHJA 261525Z AUTO 22026KT 9999 FEW011/// SCT016/// BKN028///
11/09 Q0993=

ZCZC
SA261525 EHPG     P11-B   NLD   41 m.
METAR EHPG 261525Z AUTO 23028KT 9999 FEW001 SCT021 BKN034 13/07
Q0996=

ZCZC
SA261525 EHHW     BUITENGAATS/BG-OHVS2      42 m.
METAR EHHW 261525Z AUTO 21028KT 9999 FEW001/// BKN017/// BKN021///
12/07 Q0997=

26/10/2020 16.30 uur LT